Time;durP1;ratioP1;P1;durP2;ratioP2;P2;SDS_P1;SDS_P2;PMS_P1;PMS_P2;Temp;Humidity;BMP_temperature;BMP_pressure;BME280_temperature;BME280_humidity;BME280_pressure;Samples;Min_cycle;Max_cycle;Signal;HPM_P1;HPM_P2
2022/07/18 00:00:24;;;;;;;2.15;0.85;;;;;;;17.56;48.34;101204.91;5589518;31;34063;-68
2022/07/18 00:03:27;;;;;;;3.35;0.80;;;;;;;17.61;48.17;101210.56;5589318;31;34234;-67
2022/07/18 00:06:30;;;;;;;5.12;0.95;;;;;;;17.47;48.83;101206.06;5589476;31;33888;-67
2022/07/18 00:09:33;;;;;;;4.05;1.00;;;;;;;17.45;49.05;101208.09;5589376;31;34089;-68
2022/07/18 00:12:38;;;;;;;1.73;0.90;;;;;;;17.43;48.69;101214.69;5589286;31;34703;-67
2022/07/18 00:15:41;;;;;;;1.40;0.80;;;;;;;17.45;48.51;101208.09;5589193;31;34724;-68
2022/07/18 00:18:44;;;;;;;2.50;0.70;;;;;;;17.36;48.24;101211.94;5588679;31;34650;-68
2022/07/18 00:21:47;;;;;;;1.70;0.80;;;;;;;17.30;48.26;101224.25;5589302;31;34598;-68
2022/07/18 00:24:50;;;;;;;3.05;0.98;;;;;;;17.27;48.06;101226.50;5589575;31;34016;-67
2022/07/18 00:27:53;;;;;;;1.90;0.82;;;;;;;17.26;48.02;101228.34;5588248;31;34383;-67
2022/07/18 00:30:56;;;;;;;2.42;0.95;;;;;;;17.19;48.60;101230.09;5588922;31;34280;-68
2022/07/18 00:34:00;;;;;;;1.15;0.90;;;;;;;17.12;49.10;101215.00;5588485;31;34126;-68
2022/07/18 00:37:03;;;;;;;2.03;1.00;;;;;;;17.05;48.99;101217.59;5589156;31;34604;-68
2022/07/18 00:40:06;;;;;;;2.05;0.93;;;;;;;16.93;49.43;101229.84;5588826;31;34630;-68
2022/07/18 00:43:13;;;;;;;6.15;1.10;;;;;;;16.76;50.40;101221.16;5589099;31;35205;-68
2022/07/18 00:46:23;;;;;;;2.08;0.90;;;;;;;16.76;50.32;101220.34;5588725;31;35364;-68
2022/07/18 00:49:27;;;;;;;2.97;1.00;;;;;;;16.76;50.77;101223.00;5588750;31;33942;-68
2022/07/18 00:52:30;;;;;;;4.28;0.90;;;;;;;16.80;50.71;101224.28;5588014;31;34592;-67
2022/07/18 00:55:32;;;;;;;3.08;0.90;;;;;;;16.84;50.59;101229.13;5588981;31;34325;-68
2022/07/18 00:58:36;;;;;;;2.42;0.90;;;;;;;16.79;50.29;101233.37;5588720;31;34793;-67
2022/07/18 01:01:42;;;;;;;2.42;0.98;;;;;;;16.76;50.57;101236.41;5588538;31;34040;-68
2022/07/18 01:04:45;;;;;;;2.92;1.10;;;;;;;16.75;51.84;101234.78;5588471;31;34540;-67
2022/07/18 01:07:49;;;;;;;4.12;1.00;;;;;;;16.80;53.44;101235.00;5587779;31;32304;-68
2022/07/18 01:10:53;;;;;;;2.67;0.95;;;;;;;16.75;54.33;101243.63;5588328;31;34025;-67
2022/07/18 01:13:56;;;;;;;4.03;0.80;;;;;;;16.71;54.06;101244.19;5588268;31;33986;-67
2022/07/18 01:16:59;;;;;;;1.60;0.82;;;;;;;16.63;53.60;101241.59;5588600;31;33971;-67
2022/07/18 01:20:04;;;;;;;2.25;0.82;;;;;;;16.55;53.46;101234.47;5587268;31;32947;-67
2022/07/18 01:23:08;;;;;;;2.95;0.80;;;;;;;16.53;52.26;101240.00;5588107;31;33979;-67
2022/07/18 01:26:13;;;;;;;4.30;1.10;;;;;;;16.52;52.27;101237.50;5588033;31;34172;-67
2022/07/18 01:29:16;;;;;;;2.33;0.85;;;;;;;16.51;51.83;101231.31;5587806;31;34389;-67
2022/07/18 01:32:19;;;;;;;3.75;0.90;;;;;;;16.54;51.61;101227.47;5589127;31;32856;-67
2022/07/18 01:35:23;;;;;;;2.25;0.70;;;;;;;16.62;51.26;101231.91;5590797;31;33957;-68
2022/07/18 01:38:28;;;;;;;3.80;0.80;;;;;;;16.45;51.70;101229.41;5590643;31;34126;-67
2022/07/18 01:41:31;;;;;;;2.50;1.05;;;;;;;16.46;52.37;101232.88;5591092;31;34347;-68
2022/07/18 01:44:35;;;;;;;2.03;0.90;;;;;;;16.51;52.42;101231.31;5590637;31;33839;-67
2022/07/18 01:47:39;;;;;;;4.25;1.00;;;;;;;16.47;52.99;101238.06;5590960;31;33971;-67
2022/07/18 01:50:42;;;;;;;3.15;1.05;;;;;;;16.51;52.62;101241.19;5590895;31;34717;-68
2022/07/18 01:53:54;;;;;;;3.47;1.10;;;;;;;16.50;52.17;101235.03;5590892;31;34043;-67
2022/07/18 01:57:00;;;;;;;2.53;0.93;;;;;;;16.58;51.01;101235.94;5590550;31;34006;-67
2022/07/18 02:00:08;;;;;;;1.98;0.80;;;;;;;16.47;50.89;101243.44;5590767;31;34553;-68
2022/07/18 02:03:11;;;;;;;4.07;0.95;;;;;;;16.43;50.05;101236.78;5590479;31;34596;-67
2022/07/18 02:06:14;;;;;;;2.37;0.80;;;;;;;16.37;49.66;101242.88;5590449;31;34748;-68
2022/07/18 02:09:17;;;;;;;1.83;0.90;;;;;;;16.20;50.20;101229.84;5590812;31;34384;-68
2022/07/18 02:12:20;;;;;;;3.00;0.80;;;;;;;16.10;50.54;101230.13;5590554;31;34028;-67
2022/07/18 02:15:23;;;;;;;3.42;0.88;;;;;;;15.98;50.97;101237.75;5590400;31;33936;-68
2022/07/18 02:18:26;;;;;;;3.08;1.00;;;;;;;15.86;50.73;101243.75;5589656;31;33356;-68
2022/07/18 02:21:29;;;;;;;3.50;1.02;;;;;;;15.88;52.63;101244.38;5590396;31;34697;-68
2022/07/18 02:24:32;;;;;;;2.60;1.00;;;;;;;15.89;50.65;101246.03;5590273;31;34056;-68
2022/07/18 02:27:35;;;;;;;2.83;1.00;;;;;;;16.00;50.34;101256.31;5590244;31;33992;-68
2022/07/18 02:30:38;;;;;;;1.33;0.70;;;;;;;16.09;49.73;101250.69;5585748;31;138092;-68
2022/07/18 02:33:40;;;;;;;1.73;0.80;;;;;;;16.17;49.66;101249.78;5570389;32;34429;-68
2022/07/18 02:36:43;;;;;;;2.80;1.08;;;;;;;16.32;49.23;101252.47;5570614;32;35294;-68
2022/07/18 02:39:46;;;;;;;1.80;1.00;;;;;;;16.29;49.20;101256.34;5570441;32;35147;-68
2022/07/18 02:42:49;;;;;;;1.55;0.80;;;;;;;16.23;49.48;101253.56;5570518;32;34596;-68
2022/07/18 02:45:51;;;;;;;1.62;0.88;;;;;;;16.18;49.35;101251.44;5570569;32;33969;-68
2022/07/18 02:48:54;;;;;;;2.22;1.02;;;;;;;16.24;49.24;101261.44;5556304;32;32268;-68
2022/07/18 02:52:00;;;;;;;1.62;0.82;;;;;;;16.30;48.95;101246.47;5570601;32;34592;-69
2022/07/18 02:55:03;;;;;;;2.80;0.95;;;;;;;16.36;49.05;101249.22;5570544;32;33802;-68
2022/07/18 02:58:06;;;;;;;2.15;0.80;;;;;;;16.26;49.09;101253.22;5543559;32;32440;-68
2022/07/18 03:01:09;;;;;;;4.65;0.88;;;;;;;16.33;49.52;101244.25;5556619;32;33467;-67
2022/07/18 03:04:12;;;;;;;9.40;1.35;;;;;;;16.39;49.32;101253.41;5570598;32;33970;-68
2022/07/18 03:07:14;;;;;;;2.30;0.95;;;;;;;16.23;50.09;101254.41;5570234;32;34074;-68
2022/07/18 03:10:18;;;;;;;3.15;1.00;;;;;;;16.20;50.42;101253.94;5570233;32;35178;-68
2022/07/18 03:13:20;;;;;;;5.22;0.82;;;;;;;16.16;50.72;101256.16;5556516;32;34019;-68
2022/07/18 03:16:23;;;;;;;1.50;0.90;;;;;;;16.13;51.12;101266.38;5570655;32;33601;-68
2022/07/18 03:19:26;;;;;;;2.95;1.05;;;;;;;16.19;50.85;101266.50;5570089;32;34035;-68
2022/07/18 03:22:29;;;;;;;1.80;1.00;;;;;;;16.09;51.21;101266.75;5570179;32;34001;-68
2022/07/18 03:25:32;;;;;;;3.85;1.00;;;;;;;16.07;51.50;101267.97;5570222;32;34615;-68
2022/07/18 03:28:36;;;;;;;3.83;1.10;;;;;;;16.09;51.65;101272.13;5570095;32;33846;-68
2022/07/18 03:31:40;;;;;;;3.45;1.20;;;;;;;16.16;51.98;101274.06;5576512;31;34094;-68
2022/07/18 03:34:43;;;;;;;6.28;1.10;;;;;;;16.02;52.67;101268.50;5589629;31;33976;-68
2022/07/18 03:37:49;;;;;;;2.08;1.05;;;;;;;15.99;52.95;101268.88;5589676;31;34816;-68
2022/07/18 03:40:51;;;;;;;3.80;1.10;;;;;;;15.99;53.60;101271.53;5589574;31;34695;-68
2022/07/18 03:43:54;;;;;;;3.20;1.10;;;;;;;15.98;54.44;101267.19;5589572;31;34604;-68
2022/07/18 03:46:57;;;;;;;5.18;1.37;;;;;;;16.07;54.00;101276.81;5589465;31;33972;-68
2022/07/18 03:50:00;;;;;;;2.83;1.10;;;;;;;16.15;54.32;101275.09;5589899;31;34086;-68
2022/07/18 03:53:04;;;;;;;3.85;1.30;;;;;;;16.21;53.72;101280.56;5588711;31;34437;-68
2022/07/18 03:56:07;;;;;;;2.15;1.00;;;;;;;16.26;53.60;101275.47;5589538;31;33985;-68
2022/07/18 03:59:10;;;;;;;2.20;1.30;;;;;;;16.35;53.29;101287.78;5589346;31;33964;-68
2022/07/18 04:02:13;;;;;;;3.92;1.40;;;;;;;16.42;53.05;101280.66;5588524;31;34168;-68
2022/07/18 04:05:16;;;;;;;4.43;1.20;;;;;;;16.43;56.70;101281.47;5589391;31;34588;-67
2022/07/18 04:08:19;;;;;;;3.10;1.05;;;;;;;16.45;55.40;101285.66;5589360;31;35192;-67
2022/07/18 04:11:23;;;;;;;2.90;1.20;;;;;;;16.50;55.92;101291.28;5588674;31;34034;-68
2022/07/18 04:14:26;;;;;;;2.62;1.20;;;;;;;16.58;56.10;101298.44;5589271;31;33879;-67
2022/07/18 04:17:29;;;;;;;3.97;1.20;;;;;;;16.57;55.35;101291.37;5589430;31;34761;-67
2022/07/18 04:20:33;;;;;;;2.30;1.15;;;;;;;16.63;55.82;101290.66;5589473;31;34048;-66
2022/07/18 04:23:36;;;;;;;2.65;1.08;;;;;;;16.64;55.92;101291.50;5589212;31;34716;-67
2022/07/18 04:26:39;;;;;;;4.20;1.10;;;;;;;16.68;55.61;101288.25;5588962;31;33959;-67
2022/07/18 04:29:42;;;;;;;3.15;1.20;;;;;;;16.70;55.34;101294.25;5589201;31;33920;-67
2022/07/18 04:32:45;;;;;;;2.55;1.27;;;;;;;16.79;55.88;101293.16;5588686;31;34073;-67
2022/07/18 04:35:54;;;;;;;;;;;;;;;16.82;55.19;101292.78;5589237;31;33977;-67
2022/07/18 04:38:57;;;;;;;6.07;1.20;;;;;;;16.91;54.25;101296.19;5588885;31;34324;-67
2022/07/18 04:42:00;;;;;;;3.45;1.30;;;;;;;17.03;55.42;101293.88;5588962;31;33585;-68
2022/07/18 04:45:04;;;;;;;6.35;1.30;;;;;;;17.11;54.66;101299.94;5588853;31;34798;-67
2022/07/18 04:48:08;;;;;;;2.92;1.20;;;;;;;17.24;54.95;101301.94;5575142;31;33320;-67
2022/07/18 04:51:10;;;;;;;1.98;1.10;;;;;;;17.17;56.28;101306.41;5587706;31;32561;-67
2022/07/18 04:54:13;;;;;;;2.78;1.17;;;;;;;17.19;55.37;101301.69;5588627;31;33943;-67
2022/07/18 04:57:16;;;;;;;2.67;1.20;;;;;;;17.34;53.89;101299.78;5588391;31;33944;-68
2022/07/18 05:00:24;;;;;;;3.12;1.35;;;;;;;17.39;54.58;101306.25;5588244;31;33836;-68
2022/07/18 05:03:26;;;;;;;2.75;1.20;;;;;;;17.55;53.55;101307.03;5587672;31;33012;-68
2022/07/18 05:06:29;;;;;;;3.70;1.05;;;;;;;17.64;53.45;101304.06;5590853;31;34539;-67
2022/07/18 05:09:33;;;;;;;2.92;1.20;;;;;;;17.71;53.42;101298.78;5590509;31;35317;-67
2022/07/18 05:12:38;;;;;;;4.75;1.42;;;;;;;17.69;52.29;101298.97;5591183;31;35188;-69
2022/07/18 05:15:45;;;;;;;3.45;1.27;;;;;;;17.85;52.00;101305.94;5577208;31;33972;-69
2022/07/18 05:18:48;;;;;;;2.75;1.10;;;;;;;18.03;51.79;101297.41;5590760;31;34427;-68
2022/07/18 05:21:50;;;;;;;2.92;1.10;;;;;;;18.04;50.24;101301.75;5590615;31;33844;-67
2022/07/18 05:24:53;;;;;;;5.65;1.00;;;;;;;18.14;49.45;101302.25;5590668;31;33939;-68
2022/07/18 05:27:56;;;;;;;2.83;1.10;;;;;;;18.17;49.88;101301.84;5590755;31;34598;-68
2022/07/18 05:31:00;;;;;;;1.87;1.02;;;;;;;18.30;50.02;101303.81;5590576;31;33959;-68
2022/07/18 05:34:02;;;;;;;2.12;1.17;;;;;;;18.50;49.06;101310.97;5590233;31;34847;-67
2022/07/18 05:37:06;;;;;;;4.18;1.17;;;;;;;18.43;49.49;101306.59;5590329;31;33986;-68
2022/07/18 05:40:10;;;;;;;3.30;1.20;;;;;;;18.47;49.21;101314.06;5590195;31;34121;-68
2022/07/18 05:43:14;;;;;;;2.95;0.90;;;;;;;18.54;48.77;101319.53;5590342;31;34695;-68
2022/07/18 05:46:17;;;;;;;4.45;1.12;;;;;;;18.50;48.99;101310.16;5589373;31;33935;-68
2022/07/18 05:49:20;;;;;;;48.50;2.90;;;;;;;18.59;48.63;101312.50;5589723;31;33976;-68
2022/07/18 05:52:22;;;;;;;3.37;1.00;;;;;;;18.70;47.99;101319.19;5588767;31;33404;-68
2022/07/18 05:55:25;;;;;;;2.95;0.95;;;;;;;18.78;47.71;101315.53;5590145;31;34746;-67
2022/07/18 05:58:28;;;;;;;4.50;1.20;;;;;;;18.81;46.82;101309.75;5590342;31;34006;-67
2022/07/18 06:01:30;;;;;;;2.03;1.10;;;;;;;18.91;47.02;101302.97;5589940;31;34575;-68
2022/07/18 06:04:33;;;;;;;2.42;1.05;;;;;;;19.04;47.18;101300.34;5589892;31;34823;-68
2022/07/18 06:07:59;;;;;;;3.28;1.10;;;;;;;19.09;47.14;101300.56;5589889;31;34618;-68
2022/07/18 06:11:03;;;;;;;3.25;1.30;;;;;;;19.38;46.91;101302.13;5590128;31;33919;-68
2022/07/18 06:14:06;;;;;;;2.12;0.90;;;;;;;19.30;46.97;101298.78;5589776;31;34688;-68
2022/07/18 06:17:09;;;;;;;2.75;0.93;;;;;;;19.50;46.29;101303.22;5588678;31;34706;-68
2022/07/18 06:20:11;;;;;;;6.95;1.10;;;;;;;19.43;45.95;101302.34;5588854;31;34035;-68
2022/07/18 06:23:14;;;;;;;3.37;1.02;;;;;;;19.65;45.62;101304.91;5590089;31;33930;-68
2022/07/18 06:26:17;;;;;;;3.83;1.20;;;;;;;19.70;45.62;101311.34;5589402;31;34005;-68
2022/07/18 06:29:20;;;;;;;2.25;1.00;;;;;;;19.88;45.58;101306.19;5589077;31;34443;-67
2022/07/18 06:32:22;;;;;;;8.85;1.50;;;;;;;19.94;45.29;101301.84;5589744;31;34080;-67
2022/07/18 06:35:28;;;;;;;3.17;1.30;;;;;;;20.15;44.26;101304.31;5589583;31;34179;-66
2022/07/18 06:38:31;;;;;;;3.97;1.15;;;;;;;20.29;44.15;101303.25;5589783;31;34349;-67
2022/07/18 06:41:34;;;;;;;2.72;1.20;;;;;;;20.44;44.92;101299.53;5589625;31;34026;-65
2022/07/18 06:44:36;;;;;;;5.20;1.30;;;;;;;20.52;43.17;101302.03;5589013;31;33953;-66
2022/07/18 06:47:40;;;;;;;3.40;1.10;;;;;;;20.46;43.05;101302.88;5588842;31;33597;-67
2022/07/18 06:50:43;;;;;;;7.07;1.85;;;;;;;20.61;43.57;101293.50;5589676;31;33978;-67
2022/07/18 06:53:46;;;;;;;2.50;1.10;;;;;;;20.81;42.99;101288.88;5576366;31;33594;-66
2022/07/18 06:56:48;;;;;;;1.95;0.90;;;;;;;21.01;42.50;101286.09;5588825;31;32590;-66
2022/07/18 06:59:51;;;;;;;4.25;1.10;;;;;;;21.26;41.67;101286.22;5589702;31;33969;-65
2022/07/18 07:03:00;;;;;;;7.27;1.27;;;;;;;21.54;40.01;101277.75;5589247;31;34121;-67
2022/07/18 07:06:03;;;;;;;4.87;1.10;;;;;;;21.73;39.50;101275.97;5589739;31;34498;-66
2022/07/18 07:09:05;;;;;;;7.70;1.12;;;;;;;21.93;39.71;101271.22;5589889;31;35204;-65
2022/07/18 07:12:09;;;;;;;3.58;0.77;;;;;;;22.26;38.38;101279.91;5589782;31;34646;-66
2022/07/18 07:15:12;;;;;;;5.53;1.00;;;;;;;22.75;35.67;101278.16;5589044;31;34095;-66
2022/07/18 07:18:15;;;;;;;1.65;1.10;;;;;;;23.28;35.27;101270.19;5588507;31;32965;-66
2022/07/18 07:21:18;;;;;;;1.17;0.65;;;;;;;23.75;33.58;101261.16;5589616;31;34025;-65
2022/07/18 07:24:22;;;;;;;3.42;0.62;;;;;;;24.14;33.09;101273.22;5589575;31;33960;-66
2022/07/18 07:27:24;;;;;;;2.00;0.75;;;;;;;24.52;31.55;101269.22;5588524;31;33935;-66
2022/07/18 07:30:28;;;;;;;3.12;0.73;;;;;;;24.99;31.23;101259.94;5589579;31;34684;-66
2022/07/18 07:33:30;;;;;;;2.42;0.80;;;;;;;25.26;30.69;101259.38;5589562;31;34045;-65
2022/07/18 07:36:33;;;;;;;6.00;1.00;;;;;;;25.18;29.84;101249.69;5589233;31;34219;-67
2022/07/18 07:39:36;;;;;;;4.53;0.90;;;;;;;25.72;29.29;101259.12;5589450;31;33936;-67
2022/07/18 07:42:38;;;;;;;4.75;0.70;;;;;;;26.78;28.79;101255.25;5589848;31;34563;-67
2022/07/18 07:45:42;;;;;;;1.25;0.70;;;;;;;27.45;27.86;101248.69;5589472;31;34152;-66
2022/07/18 07:48:47;;;;;;;1.00;0.60;;;;;;;26.50;27.83;101243.72;5589454;31;34061;-67
2022/07/18 07:51:50;;;;;;;1.50;0.70;;;;;;;27.74;27.30;101249.25;5588723;31;33791;-66
2022/07/18 07:54:53;;;;;;;1.87;0.75;;;;;;;28.32;26.37;101256.50;5588268;31;32659;-67
2022/07/18 07:57:56;;;;;;;1.40;0.80;;;;;;;27.81;25.98;101253.38;5589326;31;33988;-67
2022/07/18 08:00:59;;;;;;;2.40;0.77;;;;;;;27.99;27.38;101243.94;5588431;31;34028;-66
2022/07/18 08:04:02;;;;;;;1.30;0.60;;;;;;;28.77;24.52;101250.44;5589119;31;33987;-66
2022/07/18 08:07:04;;;;;;;2.05;0.68;;;;;;;29.10;23.89;101255.47;5588413;31;35237;-67
2022/07/18 08:10:08;;;;;;;3.03;0.70;;;;;;;29.31;24.09;101259.12;5588975;31;35212;-67
2022/07/18 08:13:12;;;;;;;1.30;0.75;;;;;;;29.36;24.44;101248.19;5588821;31;34257;-67
2022/07/18 08:16:15;;;;;;;8.15;0.80;;;;;;;29.66;24.13;101247.41;5589141;31;34667;-66
2022/07/18 08:19:18;;;;;;;2.30;0.62;;;;;;;29.65;24.17;101256.69;5589111;31;34362;-67
2022/07/18 08:22:21;;;;;;;3.72;0.90;;;;;;;30.55;22.84;101253.03;5587944;31;33838;-66
2022/07/18 08:25:24;;;;;;;1.67;0.90;;;;;;;29.05;24.00;101249.19;5588655;31;34726;-66
2022/07/18 08:28:27;;;;;;;1.62;0.85;;;;;;;29.22;24.46;101253.34;5574809;31;33523;-67
2022/07/18 08:31:30;;;;;;;7.53;0.80;;;;;;;29.64;23.45;101253.13;5574551;31;32797;-68
2022/07/18 08:34:34;;;;;;;3.45;0.75;;;;;;;30.10;23.71;101250.41;5587982;31;33861;-68
2022/07/18 08:37:36;;;;;;;2.00;0.60;;;;;;;30.74;23.10;101255.16;5588391;31;34151;-67
2022/07/18 08:40:39;;;;;;;1.00;0.70;;;;;;;30.74;21.81;101255.16;5587356;31;34029;-66
2022/07/18 08:43:44;;;;;;;0.98;0.80;;;;;;;30.55;22.17;101255.78;5587828;31;34060;-68
2022/07/18 08:46:50;;;;;;;1.50;0.70;;;;;;;30.95;22.66;101257.53;5588448;31;34251;-68
2022/07/18 08:49:53;;;;;;;2.47;0.77;;;;;;;30.98;22.16;101248.72;5588794;31;34318;-67
2022/07/18 08:52:56;;;;;;;1.20;0.65;;;;;;;31.78;21.79;101257.56;5587928;31;33856;-67
2022/07/18 08:55:59;;;;;;;1.37;0.65;;;;;;;32.45;20.52;101257.72;5588281;31;33918;-67
2022/07/18 08:59:03;;;;;;;2.70;0.68;;;;;;;33.01;20.05;101255.13;5588492;31;33928;-68
2022/07/18 09:02:10;;;;;;;3.80;0.80;;;;;;;34.45;17.94;101254.13;5588296;31;34707;-68
2022/07/18 09:05:20;;;;;;;3.42;0.70;;;;;;;34.89;18.61;101256.28;5587554;31;34014;-68
2022/07/18 09:08:40;;;;;;;2.42;0.60;;;;;;;35.53;17.39;101252.31;5587398;31;34753;-68
2022/07/18 09:11:53;;;;;;;3.70;0.75;;;;;;;34.73;17.78;101247.50;5587264;31;33702;-68
2022/07/18 09:15:03;;;;;;;1.95;0.80;;;;;;;33.07;18.97;101252.00;5586776;31;32716;-69
2022/07/18 09:18:06;;;;;;;2.15;0.80;;;;;;;32.86;19.77;101250.66;5587910;31;34299;-68
2022/07/18 09:21:36;;;;;;;1.77;0.70;;;;;;;33.02;18.74;101245.75;5575824;31;32936;-68
2022/07/18 09:24:54;;;;;;;4.80;0.70;;;;;;;34.35;17.55;101241.38;5586988;31;32425;-68
2022/07/18 09:27:58;;;;;;;1.65;0.70;;;;;;;34.78;17.83;101244.63;5573972;31;32828;-69
2022/07/18 09:31:27;;;;;;;2.75;0.60;;;;;;;35.83;17.02;101247.16;5586795;31;32606;-68
2022/07/18 09:34:39;;;;;;;2.60;0.77;;;;;;;35.92;16.65;101245.28;5586874;31;34825;-68
2022/07/18 09:38:08;;;;;;;5.15;0.90;;;;;;;36.69;16.02;101242.06;5587578;31;33867;-68
2022/07/18 09:41:11;;;;;;;1.42;0.70;;;;;;;37.23;15.77;101243.44;5587245;31;34792;-68
2022/07/18 09:44:18;;;;;;;2.30;0.77;;;;;;;37.82;14.88;101241.75;5587618;31;34027;-68
2022/07/18 09:47:21;;;;;;;1.42;0.80;;;;;;;36.28;15.57;101242.38;5586625;31;32859;-68
2022/07/18 09:50:33;;;;;;;2.03;0.70;;;;;;;37.31;14.49;101237.91;5586870;31;32545;-68
2022/07/18 09:53:41;;;;;;;2.28;0.80;;;;;;;38.04;13.87;101233.25;5590145;31;34699;-67
2022/07/18 09:56:47;;;;;;;1.45;0.73;;;;;;;36.62;15.73;101227.88;5590378;31;33956;-67
2022/07/18 09:59:51;;;;;;;1.37;0.62;;;;;;;36.94;14.63;101232.97;5589509;31;32897;-67
2022/07/18 10:02:56;;;;;;;1.30;0.50;;;;;;;36.12;15.72;101233.66;5590938;31;33158;-67
2022/07/18 10:06:00;;;;;;;5.78;0.82;;;;;;;35.85;16.57;101225.56;5590925;31;33902;-66
2022/07/18 10:09:02;;;;;;;1.75;0.70;;;;;;;32.68;18.62;101216.53;5590319;31;34587;-68
2022/07/18 10:12:07;;;;;;;1.80;0.80;;;;;;;32.14;19.30;101221.56;5590575;31;34339;-66
2022/07/18 10:15:10;;;;;;;5.82;0.75;;;;;;;31.87;19.65;101217.41;5589255;31;33312;-68
2022/07/18 10:18:18;;;;;;;1.65;0.77;;;;;;;35.57;16.35;101211.91;5589829;31;34027;-66
2022/07/18 10:21:22;;;;;;;1.43;0.80;;;;;;;36.12;15.45;101222.59;5590204;31;34114;-67
2022/07/18 10:24:27;;;;;;;2.45;0.90;;;;;;;34.70;16.60;101217.81;5590408;31;33966;-67
2022/07/18 10:27:48;;;;;;;5.45;0.98;;;;;;;36.08;15.58;101225.19;5590234;31;34403;-68
2022/07/18 10:30:53;;;;;;;1.17;0.80;;;;;;;36.52;15.25;101210.44;5590219;31;34034;-67
2022/07/18 10:34:09;;;;;;;2.70;0.68;;;;;;;36.52;15.30;101204.09;5589334;31;33203;-68
2022/07/18 10:37:12;;;;;;;1.45;0.70;;;;;;;36.20;15.27;101196.19;5590006;31;33886;-68
2022/07/18 10:40:24;;;;;;;1.67;0.80;;;;;;;37.77;14.32;101190.13;5589370;31;34090;-68
2022/07/18 10:43:28;;;;;;;2.60;0.85;;;;;;;38.29;13.82;101185.19;5589283;31;34265;-67
2022/07/18 10:47:08;;;;;;;4.15;0.90;;;;;;;37.56;14.17;101188.41;5589382;31;33536;-67
2022/07/18 10:50:11;;;;;;;2.78;0.80;;;;;;;39.53;12.66;101181.66;5589700;31;34670;-68
2022/07/18 10:53:13;;;;;;;1.12;0.60;;;;;;;37.49;13.55;101182.50;5589386;31;32604;-68
2022/07/18 10:56:16;;;;;;;5.22;0.85;;;;;;;35.75;15.48;101182.47;5576189;31;32789;-68
2022/07/18 10:59:22;;;;;;;2.35;0.95;;;;;;;38.34;13.31;101170.34;5589108;31;34664;-68
2022/07/18 11:02:48;;;;;;;1.12;0.57;;;;;;;38.13;13.48;101167.50;5589655;31;33949;-67
2022/07/18 11:05:53;;;;;;;5.28;0.80;;;;;;;37.90;13.56;101160.59;5590151;31;34042;-67
2022/07/18 11:09:32;;;;;;;2.55;0.60;;;;;;;40.10;12.05;101161.34;5589290;31;32345;-66
2022/07/18 11:12:34;;;;;;;8.30;0.90;;;;;;;40.17;11.37;101158.00;5588985;31;33804;-68
2022/07/18 11:15:58;;;;;;;1.15;0.70;;;;;;;39.08;12.42;101156.59;5589883;31;34988;-68
2022/07/18 11:19:01;;;;;;;4.80;0.80;;;;;;;39.55;12.03;101148.00;5590152;31;34000;-67
2022/07/18 11:22:04;;;;;;;1.10;0.90;;;;;;;37.08;13.68;101134.09;5589230;31;33261;-67
2022/07/18 11:25:07;;;;;;;1.25;0.73;;;;;;;38.05;13.08;101121.28;5589787;31;33909;-68
2022/07/18 11:28:11;;;;;;;1.75;0.82;;;;;;;41.08;11.07;101131.41;5588971;31;33003;-66
2022/07/18 11:31:13;;;;;;;1.00;0.60;;;;;;;39.61;12.01;101129.91;5589797;31;34065;-68
2022/07/18 11:34:17;;;;;;;2.83;0.75;;;;;;;39.02;13.10;101129.41;5589458;31;34783;-68
2022/07/18 11:37:25;;;;;;;2.95;0.80;;;;;;;37.30;13.65;101119.22;5589404;31;34373;-68
2022/07/18 11:40:28;;;;;;;9.45;1.00;;;;;;;39.24;12.27;101120.69;5589847;31;34035;-67
2022/07/18 11:43:32;;;;;;;14.60;1.15;;;;;;;37.14;13.68;101110.63;5589434;31;34350;-66
2022/07/18 11:46:34;;;;;;;3.83;0.70;;;;;;;37.65;13.88;101106.12;5575896;31;33192;-67
2022/07/18 11:49:38;;;;;;;5.03;0.90;;;;;;;40.64;11.75;101111.03;5588619;31;33494;-65
2022/07/18 11:52:43;;;;;;;3.70;1.02;;;;;;;42.59;10.33;101102.13;5575879;31;32328;-66
2022/07/18 11:55:46;;;;;;;4.80;0.90;;;;;;;41.13;10.91;101106.91;5589363;31;34595;-68
2022/07/18 11:58:50;;;;;;;1.73;0.80;;;;;;;39.61;12.01;101093.81;5588902;31;32573;-68
2022/07/18 12:01:53;;;;;;;2.83;0.77;;;;;;;40.47;11.38;101101.00;5589444;31;33247;-68
2022/07/18 12:04:55;;;;;;;4.80;0.70;;;;;;;41.37;10.35;101094.00;5575663;31;31810;-67
2022/07/18 12:07:58;;;;;;;1.30;0.77;;;;;;;40.52;11.01;101097.97;5588589;31;34001;-67
2022/07/18 12:11:10;;;;;;;7.10;0.90;;;;;;;40.04;11.43;101081.34;5588583;31;34051;-67
2022/07/18 12:14:32;;;;;;;2.53;0.80;;;;;;;42.52;10.14;101080.47;5587412;31;34169;-68
2022/07/18 12:17:44;;;;;;;2.65;0.62;;;;;;;43.69;9.25;101077.94;5589141;31;34062;-67
2022/07/18 12:21:05;;;;;;;1.17;0.77;;;;;;;41.44;10.47;101071.91;5589053;31;35181;-67
2022/07/18 12:24:17;;;;;;;1.48;0.70;;;;;;;41.32;10.40;101071.97;5588993;31;34617;-66
2022/07/18 12:27:26;;;;;;;2.35;0.60;;;;;;;39.17;11.50;101064.91;5588622;31;32439;-65
2022/07/18 12:30:29;;;;;;;1.20;0.47;;;;;;;41.50;9.95;101060.16;5588226;31;34551;-67
2022/07/18 12:33:31;;;;;;;6.43;0.75;;;;;;;40.10;10.28;101055.72;5574924;31;33872;-68
2022/07/18 12:36:52;;;;;;;1.48;0.60;;;;;;;39.87;10.75;101060.97;5589312;31;34849;-66
2022/07/18 12:40:07;;;;;;;;;;;;;;;42.11;9.33;101062.44;5576251;31;33265;-67
2022/07/18 12:43:38;;;;;;;0.70;0.52;;;;;;;42.52;9.13;101063.72;5587902;31;35149;-67
2022/07/18 12:46:40;;;;;;;2.00;0.80;;;;;;;43.02;8.96;101059.97;5575135;31;32336;-68
2022/07/18 12:49:44;;;;;;;3.25;0.68;;;;;;;43.38;8.86;101057.84;5588162;31;32575;-67
2022/07/18 12:52:46;;;;;;;2.42;0.75;;;;;;;42.12;9.50;101052.09;5587956;31;33922;-67
2022/07/18 12:55:50;;;;;;;3.28;0.70;;;;;;;43.99;8.69;101052.03;5587688;31;34591;-68
2022/07/18 12:58:53;;;;;;;2.75;0.80;;;;;;;44.91;7.71;101048.44;5588287;31;34036;-67
2022/07/18 13:01:57;;;;;;;1.65;0.80;;;;;;;43.80;7.84;101046.53;5588002;31;34007;-68
2022/07/18 13:05:00;;;;;;;6.85;1.00;;;;;;;44.46;7.90;101049.50;5587501;31;33214;-68
2022/07/18 13:08:03;;;;;;;0.77;0.50;;;;;;;45.78;7.64;101037.63;5588313;31;33993;-68
2022/07/18 13:11:05;;;;;;;4.32;0.80;;;;;;;44.28;8.33;101039.28;5587327;31;33270;-68
2022/07/18 13:14:08;;;;;;;1.90;0.75;;;;;;;46.22;7.29;101031.88;5588228;31;34001;-67
2022/07/18 13:17:12;;;;;;;1.02;0.60;;;;;;;44.39;8.32;101031.81;5587799;31;34690;-69
2022/07/18 13:20:16;;;;;;;7.90;0.80;;;;;;;46.50;7.44;101029.16;5587942;31;34218;-69
2022/07/18 13:23:18;;;;;;;2.08;0.70;;;;;;;48.18;6.37;101025.97;5588053;31;34585;-68
2022/07/18 13:26:21;;;;;;;2.37;0.60;;;;;;;47.38;6.95;101022.12;5588373;31;34671;-68
2022/07/18 13:29:24;;;;;;;0.82;0.70;;;;;;;44.35;8.32;101019.78;5590437;31;34882;-67
2022/07/18 13:32:30;;;;;;;1.92;0.70;;;;;;;41.17;10.20;101020.69;5589169;31;32312;-67
2022/07/18 13:35:34;;;;;;;0.80;0.68;;;;;;;44.02;8.57;101028.91;5576418;31;32664;-67
2022/07/18 13:38:37;;;;;;;1.27;0.70;;;;;;;45.79;7.46;101022.41;5589114;31;32585;-67
2022/07/18 13:41:39;;;;;;;1.30;0.60;;;;;;;47.59;6.82;101019.31;5590129;31;34129;-66
2022/07/18 13:44:44;;;;;;;3.08;2.12;;;;;;;43.96;8.61;101019.25;5589614;31;32666;-66
2022/07/18 13:47:47;;;;;;;1.80;0.65;;;;;;;46.16;7.58;101003.37;5576644;31;32562;-65
2022/07/18 13:50:50;;;;;;;0.90;0.70;;;;;;;43.50;8.74;100996.19;5589292;31;34709;-67
2022/07/18 13:53:53;;;;;;;3.83;0.70;;;;;;;44.10;9.13;100999.87;5589294;31;32733;-68
2022/07/18 13:56:56;;;;;;;4.28;0.90;;;;;;;45.55;8.10;100995.81;5590178;31;33939;-67
2022/07/18 13:59:58;;;;;;;0.85;0.70;;;;;;;45.43;8.15;100993.31;5589415;31;33952;-68
2022/07/18 14:03:01;;;;;;;5.80;0.80;;;;;;;44.07;9.00;100993.03;5589995;31;34012;-68
2022/07/18 14:06:05;;;;;;;3.05;0.60;;;;;;;46.23;7.66;100992.22;5590330;31;33933;-67
2022/07/18 14:09:07;;;;;;;1.08;0.68;;;;;;;46.17;7.76;100990.16;5589231;31;34123;-67
2022/07/18 14:12:10;;;;;;;0.75;0.52;;;;;;;45.32;8.15;100987.59;5589199;31;32470;-67
2022/07/18 14:15:13;;;;;;;4.03;0.70;;;;;;;47.70;7.04;100985.53;5589861;31;33862;-68
2022/07/18 14:18:16;;;;;;;4.35;0.73;;;;;;;48.05;7.03;100987.47;5590248;31;34096;-67
2022/07/18 14:21:19;;;;;;;1.37;0.70;;;;;;;48.84;6.49;100985.84;5575813;31;32743;-68